Accueil
METAR-TAF:

METAR-TAF

Aéroports :

Aéroport de Toulouse-Blagnac

Toulouse, France

latitude: 43-38N, longitude: 001-22E, altitude: 152 m

Observation

Le bulletin a été fait il y a 12 minutes, à 22:00 UTC
Vent 8 kt de sud-est
Température 14°C
Humidité 38%
Pression 1024 hPa
Visibilité 10 km ou plus
pas de nuages en-dessous de 1500 mètres et pas de cumulonimbus.

METAR: LFBO 062200Z AUTO 13008KT CAVOK 14/00 Q1024 NOSIG

Heure: 00:12 (22:12 UTC)

Prévision

Le bulletin a été fait il y a 5 heures et 12 minutes, à 17:00 UTC
Prévision valable du 06 à 18 UTC au 07 à 24 UTC
Vent 12 kt de sud-est
Visibilité 10 km ou plus
pas de nuages en-dessous de 1500 mètres et pas de cumulonimbus.
Probabilité 30% :
Temporairement
du 07 à 08 UTC au 07 à 16 UTC
Vent 15 kt de sud-est avec des rafales jusqu'à 25 kt

TAF: LFBO 061700Z 0618/0724 14012KT CAVOK PROB30 TEMPO 0708/0716 14015G25KT

Observations et prévisions météorologiques de plus de 4000 aéroports (messages METAR et TAF).

Les stations disponibles sont représentées par des disques jaunes et rouges sur la carte.

Passer la souris dessus pour voir le nom de la station.

Cliquer dessus pour voir les observations et prévisions météorologiques.

Pour changer de carte: cliquez sur les boutons verts avec une croix noire pour zoomer, sur le bouton vert avec un tiret pour effectuer un zoom arrière, ou sur les flèches vertes pour les cartes adjacentes.


METAR-TAF: